Terminal Aerodrome Forecast
Issued by NWS Lake Charles, LA

Current Version | Previous Version | Text Only | Print | Product List | Glossary On
Versions: 1 2 3 4 5 6 7 8 9 10 11 12 13 14 15 16 17 18 19 20
000
FTUS44 KLCH 021300 AAA
TAFARA
TAF AMD
KARA 021316Z 0213/0312 12004KT 1/4SM FG VV002
     FM021600 11006KT 4SM BR VCSH OVC008
      TEMPO 0216/0220 1SM BR OVC004
     FM030500 12004KT 1SM BR OVC002
     FM031100 13006KT 1/4SM FG VV001=

USA.gov is the U.S. government's official web portal to all federal, state and local government web resources and services.